Time;durP1;ratioP1;P1;durP2;ratioP2;P2;SDS_P1;SDS_P2;PMS_P1;PMS_P2;Temp;Humidity;BMP_temperature;BMP_pressure;BME280_temperature;BME280_humidity;BME280_pressure;Samples;Min_cycle;Max_cycle;Signal;HPM_P1;HPM_P2
2022/09/14 00:00:10;;;;;;;;;;;14.40;99.90;;;;;;4955949;28;19922;-69
2022/09/14 00:02:37;;;;;;;;;;;14.40;99.90;;;;;;4973294;28;19918;-69
2022/09/14 00:05:04;;;;;;;;;;;14.60;99.90;;;;;;4972664;28;19911;-69
2022/09/14 00:07:30;;;;;;;;;;;14.70;99.90;;;;;;4973161;28;19961;-70
2022/09/14 00:09:57;;;;;;;;;;;14.90;99.90;;;;;;4973176;28;19922;-69
2022/09/14 00:12:24;;;;;;;;;;;15.00;99.90;;;;;;4973503;28;19910;-68
2022/09/14 00:14:50;;;;;;;;;;;14.90;99.90;;;;;;4973080;28;19914;-69
2022/09/14 00:17:17;;;;;;;;;;;14.80;99.90;;;;;;4972793;28;19949;-69
2022/09/14 00:19:44;;;;;;;;;;;14.90;99.90;;;;;;4972811;28;19917;-69
2022/09/14 00:22:11;;;;;;;;;;;14.90;99.90;;;;;;4973050;28;19914;-68
2022/09/14 00:24:37;;;;;;;;;;;14.90;99.90;;;;;;4972653;28;19915;-68
2022/09/14 00:27:04;;;;;;;;;;;14.90;99.90;;;;;;4972853;28;19992;-69
2022/09/14 00:29:32;;;;;;;;;;;14.80;99.90;;;;;;4972889;28;20292;-71
2022/09/14 00:31:59;;;;;;;;;;;14.80;99.90;;;;;;4972897;28;19933;-69
2022/09/14 00:34:26;;;;;;;;;;;14.80;99.90;;;;;;4972946;28;19910;-69
2022/09/14 00:36:53;;;;;;;;;;;14.80;99.90;;;;;;4976288;28;19910;-68
2022/09/14 00:39:22;;;;;;;;;;;15.00;99.90;;;;;;4976590;28;19997;-69
2022/09/14 00:41:49;;;;;;;;;;;14.90;99.90;;;;;;4976613;28;19910;-70
2022/09/14 00:44:16;;;;;;;;;;;14.90;99.90;;;;;;4976498;28;19910;-69
2022/09/14 00:46:44;;;;;;;;;;;15.10;99.90;;;;;;4976444;28;19915;-69
2022/09/14 00:49:31;;;;;;;;;;;15.00;99.90;;;;;;4976300;28;19918;-70
2022/09/14 00:52:02;;;;;;;;;;;15.10;99.90;;;;;;4976284;28;20013;-69
2022/09/14 00:54:47;;;;;;;;;;;15.00;99.90;;;;;;4976087;28;19914;-72
2022/09/14 00:57:15;;;;;;;;;;;15.00;99.90;;;;;;4976061;28;19993;-70
2022/09/14 00:59:42;;;;;;;;;;;15.10;99.90;;;;;;4975942;28;20455;-70
2022/09/14 01:02:10;;;;;;;;;;;15.10;99.90;;;;;;4976545;28;19914;-69
2022/09/14 01:04:37;;;;;;;;;;;15.10;99.90;;;;;;4976136;28;19911;-71
2022/09/14 01:07:04;;;;;;;;;;;15.10;99.90;;;;;;4976076;28;19915;-68
2022/09/14 01:09:45;;;;;;;;;;;15.00;99.90;;;;;;4976330;28;20022;-71
2022/09/14 01:12:19;;;;;;;;;;;14.90;99.90;;;;;;4976561;28;19914;-71
2022/09/14 01:14:45;;;;;;;;;;;14.90;99.90;;;;;;4975986;28;19960;-70
2022/09/14 01:17:25;;;;;;;;;;;14.80;99.90;;;;;;4975984;28;19910;-72
2022/09/14 01:20:04;;;;;;;;;;;14.80;99.90;;;;;;4976261;28;19921;-70
2022/09/14 01:22:44;;;;;;;;;;;14.80;99.90;;;;;;4976295;28;19953;-69
2022/09/14 01:25:22;;;;;;;;;;;14.80;99.90;;;;;;4975870;28;20001;-71
2022/09/14 01:27:50;;;;;;;;;;;14.80;99.90;;;;;;4976125;28;19910;-71
2022/09/14 01:30:19;;;;;;;;;;;14.80;99.90;;;;;;4975888;28;19924;-70
2022/09/14 01:33:06;;;;;;;;;;;14.80;99.90;;;;;;4975919;28;19988;-70
2022/09/14 01:35:40;;;;;;;;;;;14.80;99.90;;;;;;4975882;28;19910;-70
2022/09/14 01:38:10;;;;;;;;;;;14.80;99.90;;;;;;4976171;28;19914;-69
2022/09/14 01:40:37;;;;;;;;;;;15.10;99.90;;;;;;4975870;28;19921;-70
2022/09/14 01:43:23;;;;;;;;;;;15.20;99.90;;;;;;4976000;28;19918;-70
2022/09/14 01:45:56;;;;;;;;;;;15.20;99.90;;;;;;4965663;28;19962;-70
2022/09/14 01:48:31;;;;;;;;;;;15.10;99.90;;;;;;4977071;28;19925;-72
2022/09/14 01:50:59;;;;;;;;;;;15.20;99.90;;;;;;4980721;28;19910;-70
2022/09/14 01:53:29;;;;;;;;;;;15.20;99.90;;;;;;4983317;28;19910;-68
2022/09/14 01:55:59;;;;;;;;;;;15.20;99.90;;;;;;4983451;28;19977;-70
2022/09/14 01:58:28;;;;;;;;;;;15.10;99.90;;;;;;4983084;28;19918;-69
2022/09/14 02:01:00;;;;;;;;;;;15.10;99.90;;;;;;4983642;28;19952;-69
2022/09/14 02:03:39;;;;;;;;;;;15.10;99.90;;;;;;4982508;28;20384;-69
2022/09/14 02:06:11;;;;;;;;;;;15.10;99.90;;;;;;4982600;28;19978;-69
2022/09/14 02:08:38;;;;;;;;;;;15.10;99.90;;;;;;4977977;28;19929;-69
2022/09/14 02:11:05;;;;;;;;;;;15.10;99.90;;;;;;4975522;28;19917;-68
2022/09/14 02:13:31;;;;;;;;;;;15.10;99.90;;;;;;4975541;28;19957;-70
2022/09/14 02:15:58;;;;;;;;;;;15.00;99.90;;;;;;4975320;28;20416;-68
2022/09/14 02:18:25;;;;;;;;;;;15.10;99.90;;;;;;4975560;28;20376;-71
2022/09/14 02:20:51;;;;;;;;;;;15.00;99.90;;;;;;4974797;28;19966;-69
2022/09/14 02:23:18;;;;;;;;;;;15.00;99.90;;;;;;4975563;28;19914;-69
2022/09/14 02:25:46;;;;;;;;;;;15.10;99.90;;;;;;4972463;28;20289;-68
2022/09/14 02:28:13;;;;;;;;;;;15.10;99.90;;;;;;4974636;28;20017;-72
2022/09/14 02:30:51;;;;;;;;;;;15.10;99.90;;;;;;4974734;28;20299;-70
2022/09/14 02:33:41;;;;;;;;;;;15.10;99.90;;;;;;4974433;28;19910;-70
2022/09/14 02:36:13;;;;;;;;;;;15.10;99.90;;;;;;4969180;28;19918;-68
2022/09/14 02:38:49;;;;;;;;;;;15.10;99.90;;;;;;4974517;28;19961;-70
2022/09/14 02:41:16;;;;;;;;;;;15.20;99.90;;;;;;4974450;28;19914;-69
2022/09/14 02:43:51;;;;;;;;;;;15.20;99.90;;;;;;4974210;28;19914;-70
2022/09/14 02:46:32;;;;;;;;;;;15.20;99.90;;;;;;4974429;28;19921;-68
2022/09/14 02:49:11;;;;;;;;;;;15.30;99.90;;;;;;4974047;28;19922;-71
2022/09/14 02:51:45;;;;;;;;;;;15.20;99.90;;;;;;4974410;28;19949;-69
2022/09/14 02:54:23;;;;;;;;;;;15.20;99.90;;;;;;4974099;28;20004;-69
2022/09/14 02:56:50;;;;;;;;;;;15.10;99.90;;;;;;4974168;28;19914;-69
2022/09/14 02:59:17;;;;;;;;;;;15.10;99.90;;;;;;4973181;28;19926;-70
2022/09/14 03:01:44;;;;;;;;;;;15.10;99.90;;;;;;4974059;28;20396;-69
2022/09/14 03:04:10;;;;;;;;;;;15.10;99.90;;;;;;4973635;28;19911;-69
2022/09/14 03:06:37;;;;;;;;;;;15.20;99.90;;;;;;4974153;28;20012;-69
2022/09/14 03:09:04;;;;;;;;;;;15.30;99.90;;;;;;4973782;28;19918;-70
2022/09/14 03:11:30;;;;;;;;;;;15.50;99.90;;;;;;4973993;28;19910;-70
2022/09/14 03:13:58;;;;;;;;;;;15.70;99.90;;;;;;4973529;28;19918;-69
2022/09/14 03:16:25;;;;;;;;;;;15.80;99.90;;;;;;4973858;28;19918;-70
2022/09/14 03:18:52;;;;;;;;;;;15.90;99.90;;;;;;4973469;28;20469;-71
2022/09/14 03:21:18;;;;;;;;;;;15.90;99.90;;;;;;4973425;28;19910;-70
2022/09/14 03:23:47;;;;;;;;;;;15.90;99.90;;;;;;4973412;28;19914;-70
2022/09/14 03:26:15;;;;;;;;;;;15.90;99.90;;;;;;4973847;28;19914;-72
2022/09/14 03:28:42;;;;;;;;;;;15.90;99.90;;;;;;4973569;28;20448;-69
2022/09/14 03:31:10;;;;;;;;;;;15.90;99.90;;;;;;4973414;28;19910;-72
2022/09/14 03:33:37;;;;;;;;;;;15.90;99.90;;;;;;4972970;28;20270;-71
2022/09/14 03:36:11;;;;;;;;;;;15.70;99.90;;;;;;4973426;28;19917;-72
2022/09/14 03:38:38;;;;;;;;;;;15.60;99.90;;;;;;4973502;28;20009;-71
2022/09/14 03:41:08;;;;;;;;;;;15.60;99.90;;;;;;4973221;28;20098;-71
2022/09/14 03:43:35;;;;;;;;;;;15.70;99.90;;;;;;4973201;28;19914;-71
2022/09/14 03:46:09;;;;;;;;;;;15.70;99.90;;;;;;4972882;28;19910;-72
2022/09/14 03:48:36;;;;;;;;;;;15.80;99.90;;;;;;4973313;28;19981;-73
2022/09/14 03:51:04;;;;;;;;;;;15.70;99.90;;;;;;4973289;28;19914;-72
2022/09/14 03:53:31;;;;;;;;;;;15.80;99.90;;;;;;4973140;28;19921;-71
2022/09/14 03:55:57;;;;;;;;;;;15.80;99.90;;;;;;4973129;28;19915;-71
2022/09/14 03:58:24;;;;;;;;;;;15.80;99.90;;;;;;4973139;28;20389;-70
2022/09/14 04:00:51;;;;;;;;;;;15.70;99.90;;;;;;4973396;28;19945;-72
2022/09/14 04:03:21;;;;;;;;;;;15.80;99.90;;;;;;4973033;28;20336;-73
2022/09/14 04:05:55;;;;;;;;;;;15.80;99.90;;;;;;4972779;28;19914;-71
2022/09/14 04:08:22;;;;;;;;;;;15.80;99.90;;;;;;4973060;28;19913;-71
2022/09/14 04:10:49;;;;;;;;;;;15.80;99.90;;;;;;4972909;28;19925;-70
2022/09/14 04:13:16;;;;;;;;;;;15.90;99.90;;;;;;4972890;28;19917;-71
2022/09/14 04:15:42;;;;;;;;;;;15.80;99.90;;;;;;4972858;28;20484;-70
2022/09/14 04:18:09;;;;;;;;;;;15.80;99.90;;;;;;4973130;28;19910;-72
2022/09/14 04:20:36;;;;;;;;;;;15.80;99.90;;;;;;4972984;28;20388;-72
2022/09/14 04:23:05;;;;;;;;;;;15.90;99.90;;;;;;4973011;28;19921;-70
2022/09/14 04:25:32;;;;;;;;;;;15.90;99.90;;;;;;4972912;28;20034;-72
2022/09/14 04:27:59;;;;;;;;;;;15.90;99.90;;;;;;4973904;28;19933;-72
2022/09/14 04:30:25;;;;;;;;;;;16.00;99.90;;;;;;4973856;28;19919;-72
2022/09/14 04:32:53;;;;;;;;;;;16.00;99.90;;;;;;4973240;28;19932;-70
2022/09/14 04:35:20;;;;;;;;;;;16.00;99.90;;;;;;4972489;28;19910;-71
2022/09/14 04:37:46;;;;;;;;;;;16.00;99.90;;;;;;4972824;28;19934;-72
2022/09/14 04:40:13;;;;;;;;;;;16.10;99.90;;;;;;4972952;28;20345;-70
2022/09/14 04:42:43;;;;;;;;;;;16.00;99.90;;;;;;4972685;28;20301;-71
2022/09/14 04:45:10;;;;;;;;;;;16.10;99.90;;;;;;4972256;28;19918;-69
2022/09/14 04:47:37;;;;;;;;;;;16.00;99.90;;;;;;4972605;28;19921;-70
2022/09/14 04:50:04;;;;;;;;;;;15.90;99.90;;;;;;4972674;28;20013;-71
2022/09/14 04:52:30;;;;;;;;;;;15.90;99.90;;;;;;4973012;28;19910;-71
2022/09/14 04:54:57;;;;;;;;;;;15.80;99.90;;;;;;4972317;28;19970;-71
2022/09/14 04:57:24;;;;;;;;;;;15.80;99.90;;;;;;4955021;28;19924;-68
2022/09/14 04:59:51;;;;;;;;;;;15.80;99.90;;;;;;4972340;28;19926;-70
2022/09/14 05:02:18;;;;;;;;;;;15.80;99.90;;;;;;4972557;28;19926;-68
2022/09/14 05:04:47;;;;;;;;;;;15.80;99.90;;;;;;4972134;28;19921;-68
2022/09/14 05:07:13;;;;;;;;;;;15.80;99.90;;;;;;4972538;28;19972;-69
2022/09/14 05:09:40;;;;;;;;;;;15.90;99.90;;;;;;4972782;28;20444;-69
2022/09/14 05:12:07;;;;;;;;;;;15.90;99.90;;;;;;4972562;28;20396;-69
2022/09/14 05:14:34;;;;;;;;;;;15.80;99.90;;;;;;4972232;28;19953;-68
2022/09/14 05:17:01;;;;;;;;;;;15.90;99.90;;;;;;4972251;28;19914;-68
2022/09/14 05:19:28;;;;;;;;;;;15.80;99.90;;;;;;4972342;28;20254;-68
2022/09/14 05:21:55;;;;;;;;;;;15.80;99.90;;;;;;4972804;28;19937;-71
2022/09/14 05:24:21;;;;;;;;;;;15.80;99.90;;;;;;4975750;28;20384;-72
2022/09/14 05:26:51;;;;;;;;;;;15.90;99.90;;;;;;4958550;28;19910;-69
2022/09/14 05:29:18;;;;;;;;;;;15.80;99.90;;;;;;4958117;28;19980;-69
2022/09/14 05:31:45;;;;;;;;;;;15.70;99.90;;;;;;4975660;28;20365;-70
2022/09/14 05:34:12;;;;;;;;;;;15.60;99.90;;;;;;4975390;28;20440;-69
2022/09/14 05:36:39;;;;;;;;;;;15.60;99.90;;;;;;4975714;28;19910;-70
2022/09/14 05:39:06;;;;;;;;;;;15.50;99.90;;;;;;4975675;28;19915;-71
2022/09/14 05:41:33;;;;;;;;;;;15.50;99.90;;;;;;4975815;28;20072;-69
2022/09/14 05:44:00;;;;;;;;;;;15.60;99.90;;;;;;4975516;28;19920;-72
2022/09/14 05:46:26;;;;;;;;;;;15.70;99.90;;;;;;4975496;28;19914;-69
2022/09/14 05:48:53;;;;;;;;;;;15.60;99.90;;;;;;4975332;28;19933;-69
2022/09/14 05:51:21;;;;;;;;;;;15.60;99.90;;;;;;4975266;28;20380;-69
2022/09/14 05:53:52;;;;;;;;;;;15.40;99.90;;;;;;4975227;28;19922;-69
2022/09/14 05:56:20;;;;;;;;;;;15.40;99.90;;;;;;4975572;28;19945;-70
2022/09/14 05:58:47;;;;;;;;;;;15.30;99.90;;;;;;4975061;28;20369;-72
2022/09/14 06:01:18;;;;;;;;;;;15.40;99.90;;;;;;4975212;28;19910;-70
2022/09/14 06:03:45;;;;;;;;;;;15.30;99.90;;;;;;4974968;28;19910;-70
2022/09/14 06:06:12;;;;;;;;;;;15.30;99.90;;;;;;4974660;28;20006;-72
2022/09/14 06:08:39;;;;;;;;;;;15.40;99.90;;;;;;4975046;28;20383;-70
2022/09/14 06:11:11;;;;;;;;;;;15.40;99.90;;;;;;4974832;28;20304;-71
2022/09/14 06:13:41;;;;;;;;;;;15.40;99.90;;;;;;4974737;28;19917;-69
2022/09/14 06:16:13;;;;;;;;;;;15.40;99.90;;;;;;4975072;28;19918;-71
2022/09/14 06:18:40;;;;;;;;;;;15.40;99.90;;;;;;4974625;28;19910;-72
2022/09/14 06:21:08;;;;;;;;;;;15.40;99.90;;;;;;4957370;28;19925;-69
2022/09/14 06:23:34;;;;;;;;;;;15.40;99.90;;;;;;4974726;28;19910;-71
2022/09/14 06:26:03;;;;;;;;;;;15.30;99.90;;;;;;4974873;28;19914;-70
2022/09/14 06:28:30;;;;;;;;;;;15.30;99.90;;;;;;4974614;28;20006;-71
2022/09/14 06:30:57;;;;;;;;;;;15.30;99.90;;;;;;4974768;28;19996;-69
2022/09/14 06:33:24;;;;;;;;;;;15.30;99.90;;;;;;4974327;28;19914;-70
2022/09/14 06:35:55;;;;;;;;;;;15.30;99.90;;;;;;4976685;28;20287;-71
2022/09/14 06:38:22;;;;;;;;;;;15.40;99.90;;;;;;4979814;28;19933;-71
2022/09/14 06:40:58;;;;;;;;;;;15.30;99.90;;;;;;4976317;28;19918;-71
2022/09/14 06:43:30;;;;;;;;;;;15.30;99.90;;;;;;4974363;28;19918;-71
2022/09/14 06:45:58;;;;;;;;;;;15.20;99.90;;;;;;4974495;28;19917;-71
2022/09/14 06:48:24;;;;;;;;;;;15.20;99.90;;;;;;4974048;28;19910;-68
2022/09/14 06:50:51;;;;;;;;;;;15.10;99.90;;;;;;4973062;28;20057;-69
2022/09/14 06:53:18;;;;;;;;;;;15.10;99.90;;;;;;4971950;28;19914;-69
2022/09/14 06:55:44;;;;;;;;;;;15.10;99.90;;;;;;4972470;28;19933;-70
2022/09/14 06:58:11;;;;;;;;;;;15.00;99.90;;;;;;4972156;28;19934;-69
2022/09/14 07:00:38;;;;;;;;;;;14.90;99.90;;;;;;4972205;28;19922;-69
2022/09/14 07:03:05;;;;;;;;;;;14.90;99.90;;;;;;4954519;28;19946;-70
2022/09/14 07:05:32;;;;;;;;;;;14.90;99.90;;;;;;4971785;28;19914;-69
2022/09/14 07:07:58;;;;;;;;;;;14.80;99.90;;;;;;4972007;28;19910;-69
2022/09/14 07:10:27;;;;;;;;;;;14.80;99.90;;;;;;4971906;28;19918;-69
2022/09/14 07:12:54;;;;;;;;;;;14.80;99.90;;;;;;4972021;28;19910;-68
2022/09/14 07:15:21;;;;;;;;;;;14.80;99.90;;;;;;4971325;28;20361;-72
2022/09/14 07:17:48;;;;;;;;;;;14.80;99.90;;;;;;4971369;28;20296;-71
2022/09/14 07:20:15;;;;;;;;;;;14.80;99.90;;;;;;4971846;28;19921;-70
2022/09/14 07:22:42;;;;;;;;;;;14.80;99.90;;;;;;4971846;28;19910;-68
2022/09/14 07:25:09;;;;;;;;;;;14.80;99.90;;;;;;4971309;28;19923;-70
2022/09/14 07:27:38;;;;;;;;;;;14.70;99.90;;;;;;4971242;28;19914;-69
2022/09/14 07:30:06;;;;;;;;;;;14.70;99.90;;;;;;4971187;28;19961;-70
2022/09/14 07:32:32;;;;;;;;;;;14.70;99.90;;;;;;4971563;28;20466;-71
2022/09/14 07:34:59;;;;;;;;;;;14.70;99.90;;;;;;4971305;28;19914;-70
2022/09/14 07:37:26;;;;;;;;;;;14.70;99.90;;;;;;4971248;28;19917;-69
2022/09/14 07:39:53;;;;;;;;;;;14.70;99.90;;;;;;4971665;28;19959;-70
2022/09/14 07:42:19;;;;;;;;;;;14.60;99.90;;;;;;4971665;28;19910;-70
2022/09/14 07:44:46;;;;;;;;;;;14.60;99.90;;;;;;4970255;28;19918;-70
2022/09/14 07:47:13;;;;;;;;;;;14.60;99.90;;;;;;4970970;28;20325;-70
2022/09/14 07:49:39;;;;;;;;;;;14.60;99.90;;;;;;4952816;28;20497;-69
2022/09/14 07:52:07;;;;;;;;;;;14.50;99.90;;;;;;4951989;29;19950;-68
2022/09/14 07:54:34;;;;;;;;;;;14.50;99.90;;;;;;4934918;29;19926;-70
2022/09/14 07:57:01;;;;;;;;;;;14.40;99.90;;;;;;4951640;29;19914;-68
2022/09/14 07:59:27;;;;;;;;;;;14.40;99.90;;;;;;4951136;29;19930;-70
2022/09/14 08:01:54;;;;;;;;;;;14.40;99.90;;;;;;4951753;29;19960;-72
2022/09/14 08:04:21;;;;;;;;;;;14.40;99.90;;;;;;4951503;29;19921;-70
2022/09/14 08:06:47;;;;;;;;;;;14.40;99.90;;;;;;4951716;29;20010;-69
2022/09/14 08:09:14;;;;;;;;;;;14.40;99.90;;;;;;4951407;29;19918;-69
2022/09/14 08:11:41;;;;;;;;;;;14.30;99.90;;;;;;4951733;29;19915;-68
2022/09/14 08:14:10;;;;;;;;;;;14.30;99.90;;;;;;4951366;29;20389;-69
2022/09/14 08:16:40;;;;;;;;;;;14.20;99.90;;;;;;4951767;29;19933;-69
2022/09/14 08:19:11;;;;;;;;;;;14.20;99.90;;;;;;4957732;28;20357;-70
2022/09/14 08:21:38;;;;;;;;;;;14.20;99.90;;;;;;4971162;28;19924;-69
2022/09/14 08:24:04;;;;;;;;;;;14.30;99.90;;;;;;4970950;28;20387;-70
2022/09/14 08:26:33;;;;;;;;;;;14.20;99.90;;;;;;4971172;28;19910;-70
2022/09/14 08:29:00;;;;;;;;;;;14.20;99.90;;;;;;4970897;28;20381;-70
2022/09/14 08:31:27;;;;;;;;;;;14.10;99.90;;;;;;4970648;28;19914;-70
2022/09/14 08:33:59;;;;;;;;;;;14.20;99.90;;;;;;4970578;28;19917;-71
2022/09/14 08:36:27;;;;;;;;;;;14.10;99.90;;;;;;4970683;28;19977;-71
2022/09/14 08:38:56;;;;;;;;;;;14.10;99.90;;;;;;4970900;28;20397;-70
2022/09/14 08:41:31;;;;;;;;;;;14.10;99.90;;;;;;4970942;28;20381;-71
2022/09/14 08:44:24;;;;;;;;;;;14.10;99.90;;;;;;4972834;28;19914;-70
2022/09/14 08:46:54;;;;;;;;;;;14.10;99.90;;;;;;4949695;28;19915;-73
2022/09/14 08:49:24;;;;;;;;;;;14.10;99.90;;;;;;4970182;28;20436;-71
2022/09/14 08:51:51;;;;;;;;;;;14.10;99.90;;;;;;4970745;28;19914;-71
2022/09/14 08:54:17;;;;;;;;;;;14.10;99.90;;;;;;4970349;28;19940;-73
2022/09/14 08:56:46;;;;;;;;;;;14.10;99.90;;;;;;4970596;28;20436;-68
2022/09/14 08:59:35;;;;;;;;;;;14.10;99.90;;;;;;4974095;28;20395;-70
2022/09/14 09:02:20;;;;;;;;;;;14.10;99.90;;;;;;4974046;28;20025;-70
2022/09/14 09:04:55;;;;;;;;;;;14.10;99.90;;;;;;4974296;28;19910;-70
2022/09/14 09:07:47;;;;;;;;;;;14.10;99.90;;;;;;4973913;28;20021;-68
2022/09/14 09:10:14;;;;;;;;;;;14.10;99.90;;;;;;4976010;28;20021;-70
2022/09/14 09:12:52;;;;;;;;;;;14.10;99.90;;;;;;4976249;28;19914;-69
2022/09/14 09:15:36;;;;;;;;;;;14.10;99.90;;;;;;4975999;28;19914;-70
2022/09/14 09:18:08;;;;;;;;;;;14.10;99.90;;;;;;4976265;28;19918;-70
2022/09/14 09:20:44;;;;;;;;;;;14.10;99.90;;;;;;4975808;28;19911;-70
2022/09/14 09:23:11;;;;;;;;;;;14.10;99.90;;;;;;4975440;28;20408;-69
2022/09/14 09:25:45;;;;;;;;;;;14.10;99.90;;;;;;4975980;28;19918;-71
2022/09/14 09:28:12;;;;;;;;;;;14.10;99.90;;;;;;4975963;28;19933;-69
2022/09/14 09:30:41;;;;;;;;;;;14.10;99.90;;;;;;4975750;28;19960;-70
2022/09/14 09:33:20;;;;;;;;;;;14.10;99.90;;;;;;4975203;28;19962;-69
2022/09/14 09:35:48;;;;;;;;;;;14.10;99.90;;;;;;4975779;28;19910;-70
2022/09/14 09:38:16;;;;;;;;;;;14.00;99.90;;;;;;4975724;28;19921;-71
2022/09/14 09:40:46;;;;;;;;;;;14.00;99.90;;;;;;4966747;28;19969;-70
2022/09/14 09:43:18;;;;;;;;;;;14.00;99.90;;;;;;4955928;29;19918;-69
2022/09/14 09:45:50;;;;;;;;;;;14.00;99.90;;;;;;4956208;29;19918;-70
2022/09/14 09:48:18;;;;;;;;;;;14.10;99.90;;;;;;4956541;29;19965;-70
2022/09/14 09:50:54;;;;;;;;;;;14.10;99.90;;;;;;4956325;29;20023;-70
2022/09/14 09:53:22;;;;;;;;;;;14.10;99.90;;;;;;4955948;29;19911;-72
2022/09/14 09:55:49;;;;;;;;;;;14.10;99.90;;;;;;4955617;29;19914;-73
2022/09/14 09:58:30;;;;;;;;;;;14.10;99.90;;;;;;4955978;29;20245;-71
2022/09/14 10:00:58;;;;;;;;;;;14.10;99.90;;;;;;4956164;29;19918;-69
2022/09/14 10:03:32;;;;;;;;;;;14.00;99.90;;;;;;4955489;29;19911;-71
2022/09/14 10:06:03;;;;;;;;;;;14.10;99.90;;;;;;4955863;29;19918;-70
2022/09/14 10:08:34;;;;;;;;;;;14.00;99.90;;;;;;4955326;28;19919;-70
2022/09/14 10:11:01;;;;;;;;;;;14.00;99.90;;;;;;4955384;29;19914;-70
2022/09/14 10:13:28;;;;;;;;;;;14.00;99.90;;;;;;4955475;29;19918;-69
2022/09/14 10:16:11;;;;;;;;;;;14.00;99.90;;;;;;4955673;29;20381;-70
2022/09/14 10:18:41;;;;;;;;;;;14.10;99.90;;;;;;4958002;28;20005;-69
2022/09/14 10:21:08;;;;;;;;;;;14.10;99.90;;;;;;4974824;28;19921;-69
2022/09/14 10:23:36;;;;;;;;;;;14.20;99.90;;;;;;4974519;28;20373;-70
2022/09/14 10:26:12;;;;;;;;;;;14.10;99.90;;;;;;4974378;28;19915;-73
2022/09/14 10:28:43;;;;;;;;;;;14.20;99.90;;;;;;4973970;28;20006;-72
2022/09/14 10:31:20;;;;;;;;;;;14.20;99.90;;;;;;4974434;28;19914;-71
2022/09/14 10:33:47;;;;;;;;;;;14.20;99.90;;;;;;4974383;28;19953;-70
2022/09/14 10:36:20;;;;;;;;;;;14.20;99.90;;;;;;4974478;28;20374;-71
2022/09/14 10:38:57;;;;;;;;;;;14.20;99.90;;;;;;4974354;28;20001;-70
2022/09/14 10:41:33;;;;;;;;;;;14.10;99.90;;;;;;4974409;28;20012;-68
2022/09/14 10:44:20;;;;;;;;;;;14.10;99.90;;;;;;4974090;28;19914;-70
2022/09/14 10:47:00;;;;;;;;;;;14.10;99.90;;;;;;4974358;28;19914;-71
2022/09/14 10:49:32;;;;;;;;;;;14.10;99.90;;;;;;4975072;28;20288;-70
2022/09/14 10:52:17;;;;;;;;;;;14.00;99.90;;;;;;4977049;28;19956;-71
2022/09/14 10:54:55;;;;;;;;;;;14.00;99.90;;;;;;4973563;28;20005;-73
2022/09/14 10:57:30;;;;;;;;;;;14.10;99.90;;;;;;4974174;28;20369;-70
2022/09/14 10:59:57;;;;;;;;;;;14.10;99.90;;;;;;4973984;28;19929;-68
2022/09/14 11:02:24;;;;;;;;;;;14.10;99.90;;;;;;4974526;28;19918;-70
2022/09/14 11:05:08;;;;;;;;;;;14.10;99.90;;;;;;4973834;28;19973;-71
2022/09/14 11:07:47;;;;;;;;;;;14.10;99.90;;;;;;4974061;28;19921;-71
2022/09/14 11:10:36;;;;;;;;;;;14.10;99.90;;;;;;4973603;28;20001;-71
2022/09/14 11:13:12;;;;;;;;;;;14.10;99.90;;;;;;4946001;28;19914;-69
2022/09/14 11:15:45;;;;;;;;;;;14.10;99.90;;;;;;4973891;28;19917;-69
2022/09/14 11:18:30;;;;;;;;;;;14.10;99.90;;;;;;4974097;28;19958;-70
2022/09/14 11:20:56;;;;;;;;;;;14.00;99.90;;;;;;4973236;28;20023;-70
2022/09/14 11:23:41;;;;;;;;;;;14.00;99.90;;;;;;4972976;28;20300;-68
2022/09/14 11:26:30;;;;;;;;;;;14.00;99.90;;;;;;4973823;28;19921;-71
2022/09/14 11:29:02;;;;;;;;;;;14.00;99.90;;;;;;4972783;28;19918;-71
2022/09/14 11:31:35;;;;;;;;;;;13.90;99.90;;;;;;4973673;28;19938;-70
2022/09/14 11:34:21;;;;;;;;;;;13.90;99.90;;;;;;4973113;28;20336;-70
2022/09/14 11:36:55;;;;;;;;;;;13.90;99.90;;;;;;4973533;28;20324;-70
2022/09/14 11:39:25;;;;;;;;;;;13.80;99.90;;;;;;4972883;28;19914;-69
2022/09/14 11:42:03;;;;;;;;;;;13.80;99.90;;;;;;4973429;28;19957;-72
2022/09/14 11:44:36;;;;;;;;;;;13.70;99.90;;;;;;4955677;28;19957;-70
2022/09/14 11:47:03;;;;;;;;;;;13.70;99.90;;;;;;4973539;28;19936;-70
2022/09/14 11:49:38;;;;;;;;;;;13.70;99.90;;;;;;4973606;28;20365;-68
2022/09/14 11:52:11;;;;;;;;;;;13.70;99.90;;;;;;4973573;28;19910;-69
2022/09/14 11:54:40;;;;;;;;;;;13.70;99.90;;;;;;4972596;28;20013;-70
2022/09/14 11:57:13;;;;;;;;;;;13.60;99.90;;;;;;4973260;28;19910;-69
2022/09/14 11:59:49;;;;;;;;;;;13.60;99.90;;;;;;4973318;28;20297;-70
2022/09/14 12:02:25;;;;;;;;;;;13.60;99.90;;;;;;4973496;28;20365;-71
2022/09/14 12:05:07;;;;;;;;;;;13.60;99.90;;;;;;4973185;28;19945;-71
2022/09/14 12:07:44;;;;;;;;;;;13.50;99.90;;;;;;4976847;28;19917;-71
2022/09/14 12:10:17;;;;;;;;;;;13.50;99.90;;;;;;4973345;28;19918;-71
2022/09/14 12:13:02;;;;;;;;;;;13.50;99.90;;;;;;4973230;28;19957;-73
2022/09/14 12:15:29;;;;;;;;;;;13.40;99.90;;;;;;4973853;28;19957;-71
2022/09/14 12:18:04;;;;;;;;;;;13.50;99.90;;;;;;4974259;28;20005;-71
2022/09/14 12:20:37;;;;;;;;;;;13.40;99.90;;;;;;4979397;28;19914;-70
2022/09/14 12:23:25;;;;;;;;;;;13.40;99.90;;;;;;4979519;28;20493;-72
2022/09/14 12:26:14;;;;;;;;;;;13.40;99.90;;;;;;4978924;28;19910;-70
2022/09/14 12:28:46;;;;;;;;;;;13.40;99.90;;;;;;4969313;28;20322;-72
2022/09/14 12:31:31;;;;;;;;;;;13.40;99.90;;;;;;4977996;28;19914;-72
2022/09/14 12:34:18;;;;;;;;;;;13.30;99.90;;;;;;4979487;28;19921;-69
2022/09/14 12:36:44;;;;;;;;;;;13.30;99.90;;;;;;4977482;28;19917;-69
2022/09/14 12:39:23;;;;;;;;;;;13.30;99.90;;;;;;4977652;28;20281;-71
2022/09/14 12:41:49;;;;;;;;;;;13.30;99.90;;;;;;4977812;28;19917;-69
2022/09/14 12:44:29;;;;;;;;;;;13.30;99.90;;;;;;4976624;28;19921;-72
2022/09/14 12:46:56;;;;;;;;;;;13.30;99.90;;;;;;4976620;28;20743;-70
2022/09/14 12:49:30;;;;;;;;;;;13.30;99.90;;;;;;4976344;28;20013;-69
2022/09/14 12:52:00;;;;;;;;;;;13.30;99.90;;;;;;4976564;28;20005;-71
2022/09/14 12:54:33;;;;;;;;;;;13.30;99.90;;;;;;4976366;28;19914;-72
2022/09/14 12:57:09;;;;;;;;;;;13.40;99.90;;;;;;4976691;28;19920;-72
2022/09/14 12:59:35;;;;;;;;;;;13.40;99.90;;;;;;4979129;28;19933;-70
2022/09/14 13:02:20;;;;;;;;;;;13.40;99.90;;;;;;4977928;28;19921;-71
2022/09/14 13:04:51;;;;;;;;;;;13.40;99.90;;;;;;4976208;28;19910;-71
2022/09/14 13:07:19;;;;;;;;;;;13.30;99.90;;;;;;4976255;28;20017;-70
2022/09/14 13:09:47;;;;;;;;;;;13.40;99.90;;;;;;4976189;28;20044;-72
2022/09/14 13:12:14;;;;;;;;;;;13.40;99.90;;;;;;4976059;28;20301;-72
2022/09/14 13:14:48;;;;;;;;;;;13.40;99.90;;;;;;4975597;28;20381;-73
2022/09/14 13:17:15;;;;;;;;;;;13.40;99.90;;;;;;4975783;28;20374;-73
2022/09/14 13:19:42;;;;;;;;;;;13.40;99.90;;;;;;4958620;28;19910;-71
2022/09/14 13:22:19;;;;;;;;;;;13.40;99.90;;;;;;4976038;28;20340;-72
2022/09/14 13:24:46;;;;;;;;;;;13.40;99.90;;;;;;4975618;28;19917;-71
2022/09/14 13:27:33;;;;;;;;;;;13.40;99.90;;;;;;4975647;28;19914;-71
2022/09/14 13:30:17;;;;;;;;;;;13.40;99.90;;;;;;4975111;28;19925;-72
2022/09/14 13:32:46;;;;;;;;;;;13.40;99.90;;;;;;4975384;28;19934;-72
2022/09/14 13:35:21;;;;;;;;;;;13.30;99.90;;;;;;4975640;28;19921;-71
2022/09/14 13:37:48;;;;;;;;;;;13.30;99.90;;;;;;4975609;28;19969;-72
2022/09/14 13:40:15;;;;;;;;;;;13.30;99.90;;;;;;4975632;28;20257;-72
2022/09/14 13:42:42;;;;;;;;;;;13.40;99.90;;;;;;4974492;28;19918;-73
2022/09/14 13:45:12;;;;;;;;;;;13.40;99.90;;;;;;4975174;28;19914;-73
2022/09/14 13:47:39;;;;;;;;;;;13.40;99.90;;;;;;4975273;28;19914;-73
2022/09/14 13:50:06;;;;;;;;;;;13.40;99.90;;;;;;4975468;28;19922;-73
2022/09/14 13:52:37;;;;;;;;;;;13.50;99.90;;;;;;4957765;28;19914;-72
2022/09/14 13:55:10;;;;;;;;;;;13.50;99.90;;;;;;4975372;28;19911;-72
2022/09/14 13:57:38;;;;;;;;;;;13.50;99.90;;;;;;4975222;28;19910;-71
2022/09/14 14:00:15;;;;;;;;;;;13.50;99.90;;;;;;4975094;28;19918;-73
2022/09/14 14:02:47;;;;;;;;;;;13.50;99.90;;;;;;4974866;28;20389;-72
2022/09/14 14:05:26;;;;;;;;;;;13.50;99.90;;;;;;4974882;28;19918;-71
2022/09/14 14:07:54;;;;;;;;;;;13.50;99.90;;;;;;4975110;28;20332;-73
2022/09/14 14:10:25;;;;;;;;;;;13.60;99.90;;;;;;4974914;28;19921;-71
2022/09/14 14:12:52;;;;;;;;;;;13.50;99.90;;;;;;4974943;28;19915;-72
2022/09/14 14:15:19;;;;;;;;;;;13.60;99.90;;;;;;4974839;28;19914;-72
2022/09/14 14:17:46;;;;;;;;;;;13.60;99.90;;;;;;4974824;28;19941;-73
2022/09/14 14:20:25;;;;;;;;;;;13.60;99.90;;;;;;4974832;28;19964;-71
2022/09/14 14:22:56;;;;;;;;;;;13.60;99.90;;;;;;4974343;28;20321;-72
2022/09/14 14:25:39;;;;;;;;;;;13.70;99.90;;;;;;4974580;28;19914;-73
2022/09/14 14:28:15;;;;;;;;;;;13.70;99.90;;;;;;4974798;28;19910;-72
2022/09/14 14:30:42;;;;;;;;;;;13.70;99.90;;;;;;4974674;28;19922;-73
2022/09/14 14:33:13;;;;;;;;;;;13.70;99.90;;;;;;4974145;28;20053;-72
2022/09/14 14:35:40;;;;;;;;;;;13.80;99.90;;;;;;4974620;28;20391;-73